Time;durP1;ratioP1;P1;durP2;ratioP2;P2;SDS_P1;SDS_P2;PMS_P1;PMS_P2;Temp;Humidity;BMP_temperature;BMP_pressure;BME280_temperature;BME280_humidity;BME280_pressure;Samples;Min_cycle;Max_cycle;Signal;HPM_P1;HPM_P2
2024/04/05 00:00:51;;;;;;;38.38;5.78;;;12.20;99.90;;;;;;5151259;27;38230;-81
2024/04/05 00:03:18;;;;;;;30.48;5.28;;;12.20;99.90;;;;;;5146470;27;37131;-81
2024/04/05 00:05:44;;;;;;;34.70;5.50;;;12.20;99.90;;;;;;5150556;27;39153;-82
2024/04/05 00:08:10;;;;;;;32.55;5.07;;;12.20;99.90;;;;;;5145606;27;37507;-80
2024/04/05 00:10:37;;;;;;;29.50;4.88;;;12.20;99.90;;;;;;5149125;27;39413;-80
2024/04/05 00:13:03;;;;;;;32.08;5.10;;;12.20;99.90;;;;;;5147474;27;36610;-81
2024/04/05 00:15:30;;;;;;;34.70;7.38;;;12.20;99.90;;;;;;5146758;27;38935;-81
2024/04/05 00:17:56;;;;;;;34.75;5.80;;;12.20;99.90;;;;;;5145134;27;39031;-81
2024/04/05 00:20:22;;;;;;;26.23;4.30;;;12.10;99.90;;;;;;5136931;27;36997;-81
2024/04/05 00:22:49;;;;;;;32.50;5.20;;;12.10;99.90;;;;;;5143926;27;36535;-81
2024/04/05 00:25:17;;;;;;;34.38;5.32;;;12.10;99.90;;;;;;5157988;27;39833;-80
2024/04/05 00:27:44;;;;;;;37.17;6.10;;;12.00;99.90;;;;;;5151985;27;38239;-81
2024/04/05 00:30:10;;;;;;;48.58;6.35;;;12.00;99.90;;;;;;5154233;27;36700;-81
2024/04/05 00:32:36;;;;;;;45.03;7.57;;;11.90;99.90;;;;;;5149098;27;37589;-80
2024/04/05 00:35:03;;;;;;;36.50;6.32;;;11.90;99.90;;;;;;5162062;27;38809;-81
2024/04/05 00:37:29;;;;;;;42.95;8.15;;;11.90;99.90;;;;;;5155775;27;38401;-80
2024/04/05 00:39:56;;;;;;;46.03;7.28;;;11.90;99.90;;;;;;5158024;27;36589;-81
2024/04/05 00:42:22;;;;;;;44.88;8.13;;;11.90;99.90;;;;;;5147366;27;35914;-81
2024/04/05 00:44:48;;;;;;;45.00;8.40;;;11.90;99.90;;;;;;5152108;27;37420;-81
2024/04/05 00:47:15;;;;;;;36.20;7.68;;;11.90;99.90;;;;;;5151410;27;38660;-81
2024/04/05 00:49:41;;;;;;;39.15;7.78;;;11.90;99.90;;;;;;5150445;27;38058;-81
2024/04/05 00:52:08;;;;;;;46.70;7.97;;;11.90;99.90;;;;;;5143140;27;38369;-80
2024/04/05 00:54:36;;;;;;;43.97;8.50;;;11.90;99.90;;;;;;5147570;27;38759;-80
2024/04/05 00:57:02;;;;;;;47.90;9.60;;;11.90;99.90;;;;;;5144537;27;38182;-80
2024/04/05 00:59:28;;;;;;;42.60;7.95;;;11.90;99.90;;;;;;5145107;27;39662;-82
2024/04/05 01:02:12;;;;;;;48.78;8.93;;;11.90;99.90;;;;;;5539394;22;35999;-76
2024/04/05 01:04:38;;;;;;;47.08;7.80;;;11.90;99.90;;;;;;5030055;28;39924;-80
2024/04/05 01:07:07;;;;;;;42.47;7.32;;;11.90;99.90;;;;;;5031916;28;39270;-80
2024/04/05 01:09:33;;;;;;;43.85;8.45;;;11.90;99.90;;;;;;5032032;28;37759;-80
2024/04/05 01:11:59;;;;;;;49.40;8.25;;;11.90;99.90;;;;;;5043844;28;36617;-80
2024/04/05 01:14:26;;;;;;;39.40;8.80;;;11.90;99.90;;;;;;5027791;28;39627;-80
2024/04/05 01:16:53;;;;;;;42.35;9.13;;;11.80;99.90;;;;;;5028942;28;38630;-80
2024/04/05 01:19:19;;;;;;;59.45;9.98;;;11.80;99.90;;;;;;5028255;28;35774;-79
2024/04/05 01:21:49;;;;;;;46.10;9.35;;;11.80;99.90;;;;;;5029660;28;37144;-80
2024/04/05 01:24:15;;;;;;;51.13;9.82;;;11.80;99.90;;;;;;5026788;28;37795;-80
2024/04/05 01:26:41;;;;;;;49.40;8.63;;;11.80;99.90;;;;;;5027636;28;38601;-80
2024/04/05 01:29:07;;;;;;;61.88;10.23;;;11.80;99.90;;;;;;5027148;28;37545;-80
2024/04/05 01:31:33;;;;;;;44.95;8.85;;;11.80;99.90;;;;;;5026143;28;36952;-80
2024/04/05 01:33:59;;;;;;;43.97;8.88;;;11.80;99.90;;;;;;5042093;28;40336;-79
2024/04/05 01:36:26;;;;;;;53.75;11.07;;;11.80;99.90;;;;;;5026806;28;39620;-78
2024/04/05 01:38:52;;;;;;;36.45;8.48;;;11.80;99.90;;;;;;5025426;28;40008;-79
2024/04/05 01:41:22;;;;;;;52.60;8.48;;;11.80;99.90;;;;;;5029304;28;37659;-78
2024/04/05 01:43:48;;;;;;;35.85;8.13;;;11.80;99.90;;;;;;5028530;28;37901;-77
2024/04/05 01:46:14;;;;;;;44.55;7.40;;;11.90;99.90;;;;;;5027006;28;39655;-78
2024/04/05 01:48:40;;;;;;;39.53;7.63;;;11.90;99.90;;;;;;5027616;28;38411;-79
2024/04/05 01:51:06;;;;;;;39.03;6.82;;;12.00;99.90;;;;;;5025168;28;37592;-78
2024/04/05 01:53:32;;;;;;;43.17;7.32;;;12.00;99.90;;;;;;5028625;28;39156;-78
2024/04/05 01:56:02;;;;;;;34.85;6.50;;;12.00;99.90;;;;;;5027596;28;38828;-78
2024/04/05 01:58:28;;;;;;;47.03;6.68;;;12.00;99.90;;;;;;5025441;28;48408;-77
2024/04/05 02:01:01;;;;;;;40.58;6.82;;;12.00;99.90;;;;;;5027556;28;36515;-78
2024/04/05 02:03:29;;;;;;;41.03;6.18;;;12.00;99.90;;;;;;5027341;28;47135;-78
2024/04/05 02:05:55;;;;;;;37.65;6.95;;;12.00;99.90;;;;;;5028245;28;38492;-77
2024/04/05 02:08:21;;;;;;;37.40;6.65;;;12.00;99.90;;;;;;5025957;28;37106;-78
2024/04/05 02:10:47;;;;;;;36.72;5.93;;;12.00;99.90;;;;;;5025462;28;37376;-78
2024/04/05 02:13:14;;;;;;;42.45;6.75;;;12.10;99.90;;;;;;5023002;28;37990;-78
2024/04/05 02:15:44;;;;;;;31.67;5.85;;;12.10;99.90;;;;;;5022847;28;38945;-78
2024/04/05 02:18:11;;;;;;;34.88;7.22;;;12.10;99.90;;;;;;5020979;28;36828;-79
2024/04/05 02:20:39;;;;;;;31.23;5.93;;;12.20;99.90;;;;;;5025440;28;36922;-78
2024/04/05 02:23:05;;;;;;;27.88;5.38;;;12.20;99.90;;;;;;5023924;28;40014;-78
2024/04/05 02:25:31;;;;;;;38.28;7.78;;;12.20;99.90;;;;;;5024342;28;40669;-78
2024/04/05 02:27:57;;;;;;;31.85;5.13;;;12.30;99.90;;;;;;5026810;28;37922;-78
2024/04/05 02:30:24;;;;;;;33.95;5.93;;;12.30;99.90;;;;;;5024825;28;38705;-79
2024/04/05 02:32:51;;;;;;;34.38;5.78;;;12.40;99.90;;;;;;5022119;28;37455;-79
2024/04/05 02:35:17;;;;;;;24.67;5.22;;;12.50;99.90;;;;;;5022658;28;38993;-78
2024/04/05 02:37:43;;;;;;;25.20;5.63;;;12.50;99.90;;;;;;5023488;28;37726;-79
2024/04/05 02:40:09;;;;;;;32.78;6.63;;;12.50;99.90;;;;;;5027454;28;39179;-79
2024/04/05 02:42:35;;;;;;;37.65;5.90;;;12.60;99.90;;;;;;5031214;28;38478;-78
2024/04/05 02:45:02;;;;;;;30.67;5.60;;;12.60;99.90;;;;;;5026208;28;39628;-78
2024/04/05 02:47:29;;;;;;;41.67;6.95;;;12.60;99.90;;;;;;5027658;28;36246;-78
2024/04/05 02:49:55;;;;;;;36.17;6.22;;;12.60;99.90;;;;;;5030611;28;37529;-79
2024/04/05 02:52:21;;;;;;;27.13;6.50;;;12.70;99.90;;;;;;5029538;28;39031;-79
2024/04/05 02:54:47;;;;;;;33.75;5.93;;;12.70;99.90;;;;;;5031505;28;38441;-79
2024/04/05 02:57:14;;;;;;;40.40;6.55;;;12.70;99.90;;;;;;5028847;28;38123;-78
2024/04/05 02:59:40;;;;;;;30.02;6.25;;;12.70;99.90;;;;;;5026882;28;37949;-78
2024/04/05 03:02:06;;;;;;;31.83;6.03;;;12.80;99.90;;;;;;5030170;28;39667;-78
2024/04/05 03:04:32;;;;;;;33.25;6.05;;;12.80;99.90;;;;;;5029868;28;38452;-78
2024/04/05 03:06:58;;;;;;;32.42;5.93;;;12.80;99.90;;;;;;5024917;28;37790;-78
2024/04/05 03:09:24;;;;;;;32.80;6.10;;;12.80;99.90;;;;;;5023097;28;38766;-79
2024/04/05 03:11:50;;;;;;;28.88;5.75;;;12.80;99.90;;;;;;5027446;28;37631;-79
2024/04/05 03:14:17;;;;;;;28.92;6.60;;;12.80;99.90;;;;;;5030271;28;38120;-78
2024/04/05 03:16:45;;;;;;;27.48;5.57;;;12.80;99.90;;;;;;5029238;28;38410;-78
2024/04/05 03:19:11;;;;;;;26.23;5.53;;;12.80;99.90;;;;;;5028987;28;38195;-78
2024/04/05 03:21:37;;;;;;;28.48;5.50;;;12.80;99.90;;;;;;5025978;28;37557;-79
2024/04/05 03:24:04;;;;;;;23.58;5.30;;;12.80;99.90;;;;;;5030843;28;38335;-79
2024/04/05 03:26:31;;;;;;;27.58;7.40;;;12.80;99.90;;;;;;5027363;28;37567;-78
2024/04/05 03:28:57;;;;;;;26.88;4.93;;;12.70;99.90;;;;;;5028780;28;37007;-78
2024/04/05 03:31:23;;;;;;;21.75;4.78;;;12.80;99.90;;;;;;5028510;28;38864;-78
2024/04/05 03:33:49;;;;;;;28.00;5.15;;;12.80;99.90;;;;;;5029832;28;39358;-79
2024/04/05 03:36:15;;;;;;;30.58;6.68;;;12.80;99.90;;;;;;5031800;28;37615;-78
2024/04/05 03:38:42;;;;;;;24.48;5.60;;;12.80;99.90;;;;;;5032779;28;37069;-78
2024/04/05 03:41:08;;;;;;;25.33;5.38;;;12.80;99.90;;;;;;5028204;28;38129;-79
2024/04/05 03:43:34;;;;;;;31.90;5.75;;;12.80;99.90;;;;;;5032737;28;38475;-78
2024/04/05 03:46:00;;;;;;;25.95;5.07;;;12.80;99.90;;;;;;5034131;28;36841;-78
2024/04/05 03:48:26;;;;;;;22.77;4.75;;;12.80;99.90;;;;;;5024665;28;40635;-78
2024/04/05 03:50:52;;;;;;;22.13;5.18;;;12.90;99.90;;;;;;5028256;28;40385;-78
2024/04/05 03:53:20;;;;;;;20.50;4.93;;;12.90;99.90;;;;;;5023754;28;38486;-78
2024/04/05 03:55:46;;;;;;;21.83;4.57;;;12.90;99.90;;;;;;5027626;28;37801;-78
2024/04/05 03:58:13;;;;;;;23.52;4.78;;;12.90;99.90;;;;;;5023283;28;36648;-78
2024/04/05 04:00:39;;;;;;;19.38;5.13;;;13.00;99.90;;;;;;5026537;28;36779;-78
2024/04/05 04:03:05;;;;;;;24.02;5.15;;;13.00;99.90;;;;;;5024138;28;38819;-78
2024/04/05 04:05:31;;;;;;;21.65;4.72;;;13.00;99.90;;;;;;5026113;28;37400;-78
2024/04/05 04:07:57;;;;;;;18.65;5.10;;;13.00;99.90;;;;;;5026636;28;37820;-78
2024/04/05 04:10:24;;;;;;;20.33;3.83;;;13.00;99.90;;;;;;5023682;28;39114;-78
2024/04/05 04:12:50;;;;;;;20.00;5.00;;;13.00;99.90;;;;;;5025901;28;39016;-78
2024/04/05 04:15:16;;;;;;;22.30;4.95;;;13.00;99.90;;;;;;5027979;28;36385;-78
2024/04/05 04:17:43;;;;;;;24.13;4.95;;;13.00;99.90;;;;;;5028677;28;37993;-78
2024/04/05 04:20:09;;;;;;;25.35;4.68;;;12.90;99.90;;;;;;5041136;28;41610;-78
2024/04/05 04:22:35;;;;;;;22.13;5.05;;;12.90;99.90;;;;;;5027456;28;38899;-79
2024/04/05 04:25:03;;;;;;;21.08;5.07;;;12.90;99.90;;;;;;5026952;28;39061;-78
2024/04/05 04:27:29;;;;;;;27.33;4.63;;;12.80;99.90;;;;;;5031347;28;37543;-79
2024/04/05 04:29:55;;;;;;;23.35;5.40;;;12.90;99.90;;;;;;5027985;28;39985;-78
2024/04/05 04:32:22;;;;;;;23.02;4.68;;;12.90;99.90;;;;;;5042798;28;39401;-79
2024/04/05 04:34:49;;;;;;;20.50;4.95;;;12.80;99.90;;;;;;5028431;28;38058;-79
2024/04/05 04:37:16;;;;;;;20.08;4.93;;;12.80;99.90;;;;;;5028141;28;37031;-78
2024/04/05 04:39:43;;;;;;;24.98;5.15;;;12.80;99.90;;;;;;5029463;28;39226;-78
2024/04/05 04:42:10;;;;;;;21.20;4.93;;;12.80;99.90;;;;;;5027007;28;35609;-78
2024/04/05 04:44:36;;;;;;;25.75;4.75;;;12.80;99.90;;;;;;5027335;28;37862;-78
2024/04/05 04:47:02;;;;;;;21.17;4.40;;;12.80;99.90;;;;;;5026120;28;37530;-78
2024/04/05 04:49:28;;;;;;;21.80;5.43;;;12.90;99.90;;;;;;5027835;28;39657;-77
2024/04/05 04:51:54;;;;;;;24.08;4.88;;;12.90;99.90;;;;;;5027438;28;38360;-78
2024/04/05 04:54:20;;;;;;;20.88;4.82;;;12.90;99.90;;;;;;5021916;28;38915;-78
2024/04/05 04:56:46;;;;;;;20.00;4.55;;;12.80;99.90;;;;;;5023888;28;36932;-78
2024/04/05 04:59:13;;;;;;;21.48;5.47;;;12.80;99.90;;;;;;5025730;28;37640;-78
2024/04/05 05:01:40;;;;;;;26.00;5.63;;;12.80;99.90;;;;;;5030758;28;37783;-78
2024/04/05 05:04:06;;;;;;;20.17;4.97;;;12.80;99.90;;;;;;5030459;28;37557;-77
2024/04/05 05:06:32;;;;;;;23.83;5.82;;;12.80;99.90;;;;;;5032219;28;36926;-79
2024/04/05 05:08:59;;;;;;;26.98;6.10;;;12.90;99.90;;;;;;5033302;28;37811;-78
2024/04/05 05:11:25;;;;;;;20.30;5.63;;;12.80;99.90;;;;;;5040866;28;37811;-79
2024/04/05 05:13:51;;;;;;;27.70;6.13;;;12.90;99.90;;;;;;5032184;28;36482;-80
2024/04/05 05:16:18;;;;;;;26.67;6.18;;;12.80;99.90;;;;;;5031075;28;38215;-79
2024/04/05 05:18:45;;;;;;;19.45;4.93;;;12.90;99.90;;;;;;5031800;28;40563;-80
2024/04/05 05:21:14;;;;;;;25.92;7.18;;;12.80;99.90;;;;;;5030933;28;37815;-79
2024/04/05 05:23:40;;;;;;;26.35;7.30;;;12.80;99.90;;;;;;5035199;28;37450;-80
2024/04/05 05:26:06;;;;;;;26.17;6.07;;;12.80;99.90;;;;;;5047897;28;37923;-80
2024/04/05 05:28:33;;;;;;;16.92;5.45;;;12.80;99.90;;;;;;5045740;28;39019;-80
2024/04/05 05:30:59;;;;;;;23.25;6.30;;;12.70;99.90;;;;;;5043428;28;38284;-79
2024/04/05 05:33:25;;;;;;;23.02;5.57;;;12.70;99.90;;;;;;5041376;28;38192;-79
2024/04/05 05:35:51;;;;;;;21.10;6.18;;;12.60;99.90;;;;;;5046339;28;37554;-79
2024/04/05 05:38:17;;;;;;;20.70;6.25;;;12.60;99.90;;;;;;5044914;28;39761;-80
2024/04/05 05:40:44;;;;;;;25.17;6.38;;;12.70;99.90;;;;;;5045314;28;38962;-79
2024/04/05 05:43:10;;;;;;;20.38;5.63;;;12.70;99.90;;;;;;5044092;28;36254;-80
2024/04/05 05:45:36;;;;;;;26.05;5.07;;;12.70;99.90;;;;;;5048200;28;37232;-80
2024/04/05 05:48:02;;;;;;;22.27;5.50;;;12.80;99.90;;;;;;5049215;28;40314;-80
2024/04/05 05:50:28;;;;;;;18.55;5.32;;;12.80;99.90;;;;;;5041992;28;46930;-80
2024/04/05 05:52:54;;;;;;;17.23;4.90;;;12.80;99.90;;;;;;5037533;28;39796;-79
2024/04/05 05:55:22;;;;;;;19.55;4.63;;;12.80;99.90;;;;;;5034889;28;35750;-80
2024/04/05 05:57:49;;;;;;;19.13;5.05;;;12.80;99.90;;;;;;5035855;28;38017;-79
2024/04/05 06:00:15;;;;;;;19.73;4.55;;;12.80;99.90;;;;;;5037577;28;37131;-79
2024/04/05 06:02:41;;;;;;;21.95;5.18;;;12.80;99.90;;;;;;5034977;28;38801;-79
2024/04/05 06:05:11;;;;;;;19.17;4.93;;;12.80;99.90;;;;;;5033643;28;38412;-79
2024/04/05 06:07:37;;;;;;;23.73;5.13;;;12.80;99.90;;;;;;5035963;28;37821;-79
2024/04/05 06:10:04;;;;;;;20.55;4.55;;;12.90;99.90;;;;;;5048995;28;37226;-80
2024/04/05 06:12:30;;;;;;;20.98;4.88;;;12.80;99.90;;;;;;5034857;28;47565;-79
2024/04/05 06:14:58;;;;;;;22.33;5.05;;;12.90;99.90;;;;;;5051920;28;33956;-79
2024/04/05 06:17:25;;;;;;;27.92;5.40;;;13.00;99.90;;;;;;5038055;28;40264;-80
2024/04/05 06:19:55;;;;;;;22.13;4.63;;;12.90;99.90;;;;;;5039668;28;38719;-79
2024/04/05 06:22:27;;;;;;;16.38;4.30;;;13.00;99.90;;;;;;5036477;28;37887;-79
2024/04/05 06:24:54;;;;;;;15.43;3.90;;;13.00;99.90;;;;;;5038090;28;20045;-78
2024/04/05 06:27:21;;;;;;;15.38;4.82;;;13.00;99.90;;;;;;5034732;28;37718;-80
2024/04/05 06:29:55;;;;;;;13.77;3.85;;;13.10;99.90;;;;;;5037217;28;38841;-79
2024/04/05 06:32:22;;;;;;;15.77;4.53;;;13.10;99.90;;;;;;5051320;28;38091;-82
2024/04/05 06:34:50;;;;;;;14.68;5.15;;;13.10;99.90;;;;;;5036245;28;37413;-79
2024/04/05 06:37:16;;;;;;;13.32;4.32;;;13.20;99.90;;;;;;5034249;28;39306;-79
2024/04/05 06:39:43;;;;;;;19.00;4.25;;;13.20;99.90;;;;;;5036844;28;38100;-79
2024/04/05 06:42:10;;;;;;;21.77;4.63;;;13.10;99.90;;;;;;5035544;28;38148;-79
2024/04/05 06:44:39;;;;;;;21.33;3.78;;;13.20;99.90;;;;;;5032632;28;37915;-78
2024/04/05 06:47:09;;;;;;;19.48;4.03;;;13.20;99.90;;;;;;5030446;28;39603;-80
2024/04/05 06:49:37;;;;;;;22.13;4.53;;;13.30;99.90;;;;;;5031593;28;38842;-79
2024/04/05 06:52:05;;;;;;;10.73;3.10;;;13.30;99.90;;;;;;5029815;28;37184;-79
2024/04/05 06:54:40;;;;;;;16.15;4.25;;;13.30;99.90;;;;;;5032554;28;37399;-79
2024/04/05 06:57:06;;;;;;;20.05;3.80;;;13.40;99.90;;;;;;5030261;28;38798;-78
2024/04/05 06:59:33;;;;;;;20.05;4.28;;;13.40;99.90;;;;;;5030346;28;37396;-79
2024/04/05 07:01:59;;;;;;;14.63;3.42;;;13.40;99.90;;;;;;5031113;28;38744;-79
2024/04/05 07:04:26;;;;;;;14.57;3.05;;;13.40;99.90;;;;;;5033126;28;36281;-79
2024/04/05 07:06:53;;;;;;;14.75;3.70;;;13.40;99.90;;;;;;5035396;28;37565;-79
2024/04/05 07:09:20;;;;;;;13.85;3.30;;;13.40;99.90;;;;;;5033978;28;39239;-79
2024/04/05 07:11:46;;;;;;;12.82;3.67;;;13.40;99.90;;;;;;5038682;28;38214;-80
2024/04/05 07:14:15;;;;;;;17.38;3.55;;;13.40;99.90;;;;;;5035524;28;38565;-79
2024/04/05 07:16:43;;;;;;;10.63;3.67;;;13.30;99.90;;;;;;5035521;28;38991;-79
2024/04/05 07:19:10;;;;;;;17.23;3.88;;;13.30;99.90;;;;;;5034205;28;37841;-80
2024/04/05 07:21:36;;;;;;;15.05;3.60;;;13.30;99.90;;;;;;5034945;28;37650;-79
2024/04/05 07:24:04;;;;;;;20.77;3.85;;;13.30;99.90;;;;;;5049279;28;37906;-79
2024/04/05 07:26:30;;;;;;;15.32;3.28;;;13.40;99.90;;;;;;5035192;28;39943;-79
2024/04/05 07:28:56;;;;;;;12.40;3.00;;;13.40;99.90;;;;;;5036256;28;38541;-79
2024/04/05 07:31:23;;;;;;;14.68;4.32;;;13.40;99.90;;;;;;5034602;28;37608;-79
2024/04/05 07:33:49;;;;;;;15.18;3.35;;;13.40;99.90;;;;;;5045665;28;35753;-80
2024/04/05 07:36:18;;;;;;;12.45;3.53;;;13.50;99.90;;;;;;5044067;28;40771;-79
2024/04/05 07:38:44;;;;;;;16.02;3.15;;;13.50;99.90;;;;;;5038333;28;37157;-79
2024/04/05 07:41:10;;;;;;;14.57;3.20;;;13.50;99.90;;;;;;5038213;28;39073;-79
2024/04/05 07:43:36;;;;;;;11.90;3.08;;;13.60;99.90;;;;;;5035659;28;38867;-80
2024/04/05 07:46:03;;;;;;;14.85;3.50;;;13.60;99.90;;;;;;5035470;28;40622;-79
2024/04/05 07:48:30;;;;;;;14.70;3.00;;;13.70;99.90;;;;;;5035447;28;37120;-79
2024/04/05 07:51:00;;;;;;;12.38;2.97;;;13.70;99.90;;;;;;5037291;28;37737;-79
2024/04/05 07:53:26;;;;;;;10.15;2.65;;;13.70;99.90;;;;;;5032684;28;38150;-79
2024/04/05 07:55:53;;;;;;;14.45;3.05;;;13.70;99.90;;;;;;5039136;28;39613;-80
2024/04/05 07:58:20;;;;;;;12.00;2.92;;;13.70;99.90;;;;;;5037859;28;39188;-80
2024/04/05 08:00:47;;;;;;;13.80;2.90;;;13.70;99.90;;;;;;5036098;28;36433;-80
2024/04/05 08:03:14;;;;;;;19.15;3.13;;;13.70;99.90;;;;;;5034741;28;37820;-79
2024/04/05 08:05:40;;;;;;;8.80;2.67;;;13.60;99.90;;;;;;5034682;28;37554;-80
2024/04/05 08:08:08;;;;;;;11.90;2.58;;;13.60;99.90;;;;;;5043887;28;37932;-79
2024/04/05 08:10:35;;;;;;;18.63;3.17;;;13.60;99.90;;;;;;5053539;28;36944;-80
2024/04/05 08:13:01;;;;;;;8.70;2.50;;;13.60;99.90;;;;;;5037658;28;37393;-80
2024/04/05 08:15:30;;;;;;;13.68;3.30;;;13.60;99.90;;;;;;5039577;28;47688;-80
2024/04/05 08:17:57;;;;;;;10.43;2.30;;;13.60;99.90;;;;;;5041234;28;37350;-80
2024/04/05 08:20:23;;;;;;;9.30;2.55;;;13.70;99.90;;;;;;5038803;28;36288;-80
2024/04/05 08:22:49;;;;;;;9.80;2.40;;;13.70;99.90;;;;;;5040246;28;35784;-80
2024/04/05 08:25:16;;;;;;;12.95;2.55;;;13.80;99.90;;;;;;5039405;28;38211;-79
2024/04/05 08:27:45;;;;;;;8.98;2.58;;;13.90;99.90;;;;;;5041434;28;39540;-79
2024/04/05 08:30:12;;;;;;;13.82;3.03;;;13.90;99.90;;;;;;5038711;28;38198;-79
2024/04/05 08:32:42;;;;;;;10.00;2.28;;;13.90;99.90;;;;;;5034326;28;37306;-80
2024/04/05 08:35:09;;;;;;;9.45;2.50;;;13.90;99.90;;;;;;5031435;28;38853;-79
2024/04/05 08:37:37;;;;;;;8.70;2.83;;;13.80;99.90;;;;;;5030437;28;38967;-79
2024/04/05 08:40:04;;;;;;;7.95;2.47;;;13.80;99.90;;;;;;5034971;28;38221;-79
2024/04/05 08:42:37;;;;;;;8.57;2.72;;;13.90;99.90;;;;;;5031150;28;46312;-79
2024/04/05 08:45:03;;;;;;;;;;;14.00;99.90;;;;;;5033796;28;38428;-79
2024/04/05 08:47:33;;;;;;;7.35;2.42;;;14.00;99.90;;;;;;5030112;28;47591;-79
2024/04/05 08:50:02;;;;;;;10.07;2.70;;;14.00;99.90;;;;;;5034213;28;39195;-79
2024/04/05 08:52:29;;;;;;;11.13;2.58;;;14.00;99.90;;;;;;5029961;28;46752;-79
2024/04/05 08:54:58;;;;;;;5.05;1.80;;;14.00;99.90;;;;;;5028283;28;37762;-79
2024/04/05 08:57:29;;;;;;;8.50;2.25;;;14.10;99.90;;;;;;5029220;28;38319;-79
2024/04/05 08:59:55;;;;;;;8.60;2.63;;;14.20;99.90;;;;;;5032328;28;39341;-78
2024/04/05 09:02:25;;;;;;;9.30;2.40;;;14.30;99.90;;;;;;5032406;28;35857;-79
2024/04/05 09:04:52;;;;;;;5.65;1.73;;;14.20;99.90;;;;;;5036912;28;39118;-79
2024/04/05 09:07:21;;;;;;;9.20;2.25;;;14.30;99.90;;;;;;5035585;28;37906;-79
2024/04/05 09:09:47;;;;;;;7.78;1.70;;;14.30;99.90;;;;;;5030520;28;36698;-79
2024/04/05 09:12:19;;;;;;;6.85;2.30;;;14.30;99.90;;;;;;5037163;28;36901;-79
2024/04/05 09:14:45;;;;;;;8.30;1.33;;;14.30;99.90;;;;;;5036834;28;38871;-79
2024/04/05 09:17:15;;;;;;;6.75;1.88;;;14.30;99.90;;;;;;5034323;28;37387;-79
2024/04/05 09:19:42;;;;;;;10.10;2.13;;;14.40;99.90;;;;;;5035563;28;36763;-79
2024/04/05 09:22:19;;;;;;;5.30;1.77;;;14.40;99.90;;;;;;5035903;28;36995;-79
2024/04/05 09:24:45;;;;;;;10.98;2.03;;;14.40;99.90;;;;;;5032424;28;39810;-81
2024/04/05 09:27:17;;;;;;;9.30;2.35;;;14.50;99.90;;;;;;5038414;28;37834;-79
2024/04/05 09:29:47;;;;;;;8.98;1.98;;;14.70;99.90;;;;;;5036417;28;36909;-79
2024/04/05 09:32:18;;;;;;;6.30;1.90;;;14.70;99.90;;;;;;5037699;28;36847;-80
2024/04/05 09:34:46;;;;;;;8.50;1.52;;;14.70;99.90;;;;;;5032364;28;37923;-79
2024/04/05 09:37:14;;;;;;;8.98;1.50;;;14.80;99.90;;;;;;5033033;28;37307;-80
2024/04/05 09:39:41;;;;;;;7.90;1.77;;;14.80;99.90;;;;;;5034388;28;38134;-80
2024/04/05 09:42:10;;;;;;;5.45;2.20;;;14.80;99.90;;;;;;5033038;28;36463;-80
2024/04/05 09:44:40;;;;;;;8.10;1.90;;;14.80;99.90;;;;;;5035129;28;37677;-79
2024/04/05 09:47:06;;;;;;;8.05;2.05;;;14.80;99.90;;;;;;5026383;28;38072;-80
2024/04/05 09:49:33;;;;;;;5.53;1.65;;;14.80;99.90;;;;;;5036463;28;37571;-80
2024/04/05 09:52:09;;;;;;;10.70;1.88;;;14.90;99.90;;;;;;5037404;28;36434;-79
2024/04/05 09:54:40;;;;;;;7.65;1.75;;;14.80;99.90;;;;;;5038469;28;48781;-80
2024/04/05 09:57:10;;;;;;;4.82;1.98;;;14.80;99.90;;;;;;5039766;28;37216;-80
2024/04/05 09:59:37;;;;;;;8.38;1.70;;;14.80;99.90;;;;;;5040847;28;39289;-80
2024/04/05 10:02:06;;;;;;;8.48;2.00;;;14.80;99.90;;;;;;5039852;28;37280;-80
2024/04/05 10:04:36;;;;;;;6.50;1.73;;;14.80;99.90;;;;;;5041522;28;38254;-80
2024/04/05 10:07:06;;;;;;;6.70;2.17;;;14.80;99.90;;;;;;5046919;28;38486;-80
2024/04/05 10:09:36;;;;;;;4.45;1.85;;;14.80;99.90;;;;;;5051316;28;47420;-81
2024/04/05 10:12:16;;;;;;;6.45;1.40;;;14.90;99.90;;;;;;5042815;28;36044;-81
2024/04/05 10:14:57;;;;;;;5.25;1.88;;;14.90;99.90;;;;;;5044238;28;37589;-80
2024/04/05 10:17:28;;;;;;;6.78;2.42;;;15.00;99.90;;;;;;5042646;28;39216;-80
2024/04/05 10:20:06;;;;;;;5.40;1.63;;;15.10;99.90;;;;;;5043223;28;37958;-81
2024/04/05 10:22:35;;;;;;;4.68;1.52;;;15.10;99.90;;;;;;5042603;28;47252;-80
2024/04/05 10:25:02;;;;;;;5.85;1.63;;;15.10;99.90;;;;;;5031080;28;38266;-81
2024/04/05 10:27:29;;;;;;;8.45;1.77;;;15.10;99.80;;;;;;5036316;28;37214;-80
2024/04/05 10:30:03;;;;;;;6.78;1.70;;;15.10;99.90;;;;;;5047651;28;37925;-81
2024/04/05 10:32:30;;;;;;;4.53;1.75;;;15.10;99.90;;;;;;5044214;28;38521;-82
2024/04/05 10:35:09;;;;;;;7.82;2.22;;;15.10;99.90;;;;;;5046109;28;37735;-82
2024/04/05 10:37:39;;;;;;;7.78;2.55;;;15.10;92.00;;;;;;5038328;28;47360;-82
2024/04/05 10:40:10;;;;;;;9.40;2.00;;;15.10;88.10;;;;;;5040969;28;38265;-80
2024/04/05 10:42:37;;;;;;;7.50;1.90;;;15.10;96.90;;;;;;5029020;28;36715;-80
2024/04/05 10:45:07;;;;;;;11.70;2.63;;;15.00;99.90;;;;;;5038143;28;39423;-81
2024/04/05 10:47:35;;;;;;;5.95;2.15;;;14.90;99.90;;;;;;5032705;28;38723;-78
2024/04/05 10:50:06;;;;;;;9.48;2.78;;;14.80;99.90;;;;;;5025081;28;36579;-79
2024/04/05 10:52:36;;;;;;;10.70;2.50;;;14.70;99.90;;;;;;5029260;28;47333;-79
2024/04/05 10:55:13;;;;;;;7.80;2.55;;;14.60;99.90;;;;;;5034201;28;38978;-79
2024/04/05 10:57:39;;;;;;;6.78;2.15;;;14.50;99.90;;;;;;5020911;28;48700;-79
2024/04/05 11:00:11;;;;;;;10.65;2.42;;;14.50;99.90;;;;;;5018502;28;38312;-80
2024/04/05 11:02:42;;;;;;;8.93;2.67;;;14.50;99.90;;;;;;5043815;28;37553;-80
2024/04/05 11:05:13;;;;;;;10.30;3.00;;;14.50;99.90;;;;;;5042426;28;39247;-79
2024/04/05 11:07:42;;;;;;;6.72;2.17;;;14.50;99.90;;;;;;5026974;28;39090;-79
2024/04/05 11:10:19;;;;;;;12.15;2.55;;;14.50;99.90;;;;;;5044364;28;38168;-79
2024/04/05 11:12:46;;;;;;;6.68;2.10;;;14.50;99.90;;;;;;5030754;28;36902;-78
2024/04/05 11:15:12;;;;;;;10.82;3.20;;;14.50;99.90;;;;;;5030639;28;39355;-79
2024/04/05 11:17:38;;;;;;;7.93;2.70;;;14.40;99.90;;;;;;5029274;28;40150;-79
2024/04/05 11:20:09;;;;;;;13.88;2.75;;;14.40;99.90;;;;;;5033854;28;37331;-79
2024/04/05 11:22:36;;;;;;;7.38;2.17;;;14.50;99.90;;;;;;5032049;28;38219;-79
2024/04/05 11:25:03;;;;;;;7.65;2.30;;;14.50;99.90;;;;;;5034446;28;39278;-79
2024/04/05 11:27:30;;;;;;;5.70;2.00;;;14.40;99.90;;;;;;5029558;28;47079;-78
2024/04/05 11:29:56;;;;;;;8.98;2.33;;;14.40;99.90;;;;;;5027042;28;39195;-79
2024/04/05 11:32:26;;;;;;;6.70;2.00;;;14.30;99.90;;;;;;5027548;28;37510;-80
2024/04/05 11:34:53;;;;;;;12.98;2.30;;;14.30;99.90;;;;;;5026364;28;38775;-78
2024/04/05 11:37:19;;;;;;;7.13;1.92;;;14.30;99.90;;;;;;5030197;28;39341;-79
2024/04/05 11:39:46;;;;;;;9.93;2.55;;;14.30;99.90;;;;;;5028405;28;37798;-79
2024/04/05 11:42:15;;;;;;;8.93;2.10;;;14.30;99.90;;;;;;5023442;28;37588;-79
2024/04/05 11:44:41;;;;;;;7.38;2.08;;;14.30;99.90;;;;;;5030546;28;39827;-79
2024/04/05 11:47:07;;;;;;;8.45;2.13;;;14.40;99.90;;;;;;5030589;28;38979;-79
2024/04/05 11:49:33;;;;;;;8.45;1.98;;;14.60;99.90;;;;;;5030381;28;38201;-79
2024/04/05 11:51:59;;;;;;;7.32;1.60;;;14.70;99.90;;;;;;5032535;28;37415;-79
2024/04/05 11:54:25;;;;;;;6.32;1.60;;;14.70;99.90;;;;;;5044799;28;39630;-78
2024/04/05 11:56:51;;;;;;;7.53;1.75;;;14.80;99.90;;;;;;5031322;28;38857;-79
2024/04/05 11:59:19;;;;;;;8.90;2.22;;;14.80;99.90;;;;;;5031763;28;38567;-79
2024/04/05 12:01:46;;;;;;;7.18;2.00;;;15.00;99.90;;;;;;5030978;28;37943;-80
2024/04/05 13:32:12;;;;;;;18.02;3.10;;;17.40;1.00;;;;;;5025694;23;20043;-86
2024/04/05 13:42:51;;;;;;;14.15;2.90;;;17.30;1.00;;;;;;5013780;23;20048;-84
2024/04/05 13:53:29;;;;;;;12.30;2.45;;;17.40;1.00;;;;;;4969278;23;20048;-86
2024/04/05 13:58:51;;;;;;;11.68;3.03;;;17.50;1.00;;;;;;4953024;23;20044;-85
2024/04/05 14:01:18;;;;;;;16.10;3.05;;;17.50;1.00;;;;;;4930038;28;37968;-86
2024/04/05 14:03:45;;;;;;;18.77;3.65;;;17.50;1.00;;;;;;4921837;28;36361;-85
2024/04/05 14:06:11;;;;;;;16.60;2.55;;;17.50;1.00;;;;;;4931440;28;38607;-86
2024/04/05 14:08:37;;;;;;;20.70;3.05;;;17.60;1.00;;;;;;4927425;28;38785;-86
2024/04/05 14:11:04;;;;;;;11.52;2.55;;;17.60;1.00;;;;;;4925057;28;39452;-86
2024/04/05 14:13:30;;;;;;;14.10;3.03;;;17.60;1.00;;;;;;4944038;28;35957;-85
2024/04/05 14:15:58;;;;;;;20.17;3.67;;;17.60;1.00;;;;;;4936192;28;39351;-85
2024/04/05 14:18:25;;;;;;;15.23;3.08;;;17.50;1.00;;;;;;4929521;28;37362;-86
2024/04/05 14:20:52;;;;;;;13.98;2.78;;;17.60;1.00;;;;;;4941629;28;36778;-84
2024/04/05 14:23:18;;;;;;;19.65;3.58;;;17.60;1.00;;;;;;4923536;28;36220;-86
2024/04/05 14:25:46;;;;;;;15.88;3.35;;;17.50;1.00;;;;;;4930880;28;39904;-85
2024/04/05 14:31:01;;;;;;;14.40;3.05;;;17.50;1.00;;;;;;5024415;23;20052;-86